createdAt,value
2022-11-12T00:00:19.524Z,24.33
2022-11-12T00:00:41.952Z,24.88
2022-11-12T00:01:03.725Z,23.45
2022-11-12T00:01:25.633Z,23.38
2022-11-12T00:01:47.392Z,22.33
2022-11-12T00:02:09.909Z,23.60
2022-11-12T00:02:31.667Z,24.25
2022-11-12T00:02:53.789Z,23.75
2022-11-12T00:03:16.040Z,22.92
2022-11-12T00:03:37.938Z,23.15
2022-11-12T00:03:59.711Z,23.50
2022-11-12T00:04:21.502Z,22.35
2022-11-12T00:04:43.243Z,23.45
2022-11-12T00:05:05.359Z,23.10
2022-11-12T00:05:27.844Z,23.25
2022-11-12T00:05:50.804Z,23.25
2022-11-12T00:06:12.654Z,23.67
2022-11-12T00:06:34.416Z,24.15
2022-11-12T00:06:56.374Z,24.17
2022-11-12T00:07:18.233Z,23.95
2022-11-12T00:07:40.208Z,23.55
2022-11-12T00:08:02.349Z,24.05
2022-11-12T00:08:24.410Z,23.17
2022-11-12T00:08:46.571Z,24.42
2022-11-12T00:09:08.280Z,24.65
2022-11-12T00:09:30.144Z,22.88
2022-11-12T00:09:51.957Z,23.60
2022-11-12T00:10:14.427Z,24.60
2022-11-12T00:10:36.344Z,24.15
2022-11-12T00:10:58.099Z,24.67
2022-11-12T00:11:19.832Z,25.40
2022-11-12T00:11:41.956Z,25.08
2022-11-12T00:12:03.818Z,24.75
2022-11-12T00:12:25.695Z,25.30
2022-11-12T00:12:47.559Z,27.48
2022-11-12T00:13:09.349Z,28.08
2022-11-12T00:13:31.398Z,28.10
2022-11-12T00:13:53.511Z,29.83
2022-11-12T00:14:15.250Z,29.42
2022-11-12T00:14:37.442Z,28.65
2022-11-12T00:14:59.202Z,28.17
2022-11-12T00:15:21.204Z,27.10
2022-11-12T00:15:43.516Z,24.85
2022-11-12T00:16:05.826Z,22.58
2022-11-12T00:16:27.983Z,22.50
2022-11-12T00:16:49.769Z,22.70
2022-11-12T00:17:11.904Z,21.92
2022-11-12T00:17:33.822Z,21.65
2022-11-12T00:17:55.654Z,20.77
2022-11-12T00:18:17.480Z,20.10
2022-11-12T00:18:39.224Z,19.38
2022-11-12T00:19:00.990Z,19.85
2022-11-12T00:19:22.857Z,19.20
2022-11-12T00:19:44.637Z,19.83
2022-11-12T00:20:08.430Z,19.08
2022-11-12T00:20:30.184Z,18.92
2022-11-12T00:20:51.970Z,19.00
2022-11-12T00:21:13.691Z,19.35
2022-11-12T00:21:35.488Z,19.70
2022-11-12T00:21:57.255Z,18.75
2022-11-12T00:22:19.010Z,19.70
2022-11-12T00:22:40.853Z,20.02
2022-11-12T00:23:02.666Z,19.10
2022-11-12T00:23:24.403Z,18.88
2022-11-12T00:23:46.125Z,18.98
2022-11-12T00:24:07.916Z,18.15
2022-11-12T00:24:29.614Z,18.75
2022-11-12T00:24:51.556Z,19.23
2022-11-12T00:25:13.746Z,19.58
2022-11-12T00:25:36.057Z,18.83
2022-11-12T00:26:01.893Z,19.70
2022-11-12T00:26:23.635Z,19.60
2022-11-12T00:26:45.386Z,20.27
2022-11-12T00:27:07.196Z,20.08
2022-11-12T00:27:29.114Z,20.17
2022-11-12T00:27:51.249Z,20.20
2022-11-12T00:28:13.441Z,19.63
2022-11-12T00:28:38.221Z,19.88
2022-11-12T00:29:00.332Z,19.63
2022-11-12T00:29:22.130Z,18.95
2022-11-12T00:29:44.302Z,19.05
2022-11-12T00:30:07.092Z,18.58
2022-11-12T00:30:28.959Z,19.02
2022-11-12T00:30:51.091Z,19.58
2022-11-12T00:31:12.940Z,18.95
2022-11-12T00:31:34.731Z,18.70
2022-11-12T00:31:56.503Z,19.17
2022-11-12T00:32:18.528Z,19.30
2022-11-12T00:32:40.255Z,18.48
2022-11-12T00:33:03.726Z,18.45
2022-11-12T00:33:25.510Z,19.13
2022-11-12T00:33:47.341Z,17.95
2022-11-12T00:34:09.081Z,18.00
2022-11-12T00:34:31.323Z,19.02
2022-11-12T00:34:53.199Z,18.92
2022-11-12T00:35:15.089Z,18.90
2022-11-12T00:35:36.851Z,18.33
2022-11-12T00:36:00.823Z,18.90
2022-11-12T00:36:22.536Z,19.88
2022-11-12T00:36:44.302Z,19.70
2022-11-12T00:37:06.153Z,19.88
2022-11-12T00:37:27.986Z,18.60
2022-11-12T00:37:54.860Z,19.38
2022-11-12T00:38:16.590Z,20.55
2022-11-12T00:38:38.326Z,20.20
2022-11-12T00:39:00.047Z,19.92
2022-11-12T00:39:21.827Z,20.73
2022-11-12T00:39:43.780Z,21.13
2022-11-12T00:40:06.158Z,19.77
2022-11-12T00:40:28.330Z,20.50
2022-11-12T00:40:50.055Z,20.80
2022-11-12T00:41:11.924Z,20.58
2022-11-12T00:41:33.689Z,20.92
2022-11-12T00:41:56.121Z,21.15
2022-11-12T00:42:17.812Z,20.45
2022-11-12T00:42:39.565Z,20.55
2022-11-12T00:43:01.346Z,20.38
2022-11-12T00:43:24.944Z,20.55
2022-11-12T00:43:46.773Z,20.33
2022-11-12T00:44:08.603Z,19.25
2022-11-12T00:44:30.374Z,20.27
2022-11-12T00:44:52.104Z,19.80
2022-11-12T00:45:14.266Z,19.58
2022-11-12T00:45:35.994Z,19.35
2022-11-12T00:45:57.724Z,19.50
2022-11-12T00:46:19.492Z,18.77
2022-11-12T00:46:41.282Z,19.25
2022-11-12T00:47:03.008Z,19.10
2022-11-12T00:47:24.755Z,19.13
2022-11-12T00:47:46.768Z,19.55
2022-11-12T00:48:08.558Z,19.35
2022-11-12T00:48:30.717Z,18.98
2022-11-12T00:48:52.844Z,18.83
2022-11-12T00:49:14.734Z,19.50
2022-11-12T00:49:36.439Z,20.05
2022-11-12T00:49:58.146Z,19.30
2022-11-12T00:50:19.974Z,18.92
2022-11-12T00:50:41.768Z,19.40
2022-11-12T00:51:05.067Z,19.83
2022-11-12T00:51:26.772Z,19.65
2022-11-12T00:51:48.978Z,19.05
2022-11-12T00:52:10.731Z,19.23
2022-11-12T00:52:32.855Z,18.63
2022-11-12T00:52:54.756Z,18.90
2022-11-12T00:53:16.542Z,19.20
2022-11-12T00:53:38.281Z,19.08
2022-11-12T00:53:59.995Z,19.50
2022-11-12T00:54:21.708Z,20.08
2022-11-12T00:54:43.446Z,20.05
2022-11-12T00:55:05.343Z,20.38
2022-11-12T00:55:27.106Z,19.83
2022-11-12T00:55:48.790Z,19.85
2022-11-12T00:56:10.914Z,19.33
2022-11-12T00:56:35.498Z,20.02
2022-11-12T00:56:57.892Z,19.98
2022-11-12T00:57:20.024Z,19.90
2022-11-12T00:57:41.722Z,19.75
2022-11-12T00:58:03.492Z,20.10
2022-11-12T00:58:25.522Z,19.65
2022-11-12T00:58:47.401Z,18.75
2022-11-12T00:59:09.341Z,19.40
2022-11-12T00:59:31.481Z,19.15
2022-11-12T00:59:53.259Z,19.50
2022-11-12T01:00:19.297Z,18.38
2022-11-12T01:00:41.049Z,19.48
2022-11-12T01:01:11.681Z,19.80
2022-11-12T01:01:33.664Z,20.52
2022-11-12T01:01:55.663Z,18.83
2022-11-12T01:02:17.450Z,19.67
2022-11-12T01:02:44.222Z,20.33
2022-11-12T01:03:08.204Z,19.88
2022-11-12T01:03:30.013Z,20.67
2022-11-12T01:03:52.314Z,19.52
2022-11-12T01:04:14.197Z,19.48
2022-11-12T01:04:35.905Z,19.30
2022-11-12T01:04:57.643Z,19.23
2022-11-12T01:05:20.391Z,20.23
2022-11-12T01:05:42.113Z,20.27
2022-11-12T01:06:08.960Z,19.30
2022-11-12T01:06:30.985Z,19.85
2022-11-12T01:06:52.811Z,20.23
2022-11-12T01:07:16.109Z,19.40
2022-11-12T01:07:37.941Z,19.52
2022-11-12T01:07:59.713Z,19.85
2022-11-12T01:08:21.468Z,19.52
2022-11-12T01:08:43.665Z,19.98
2022-11-12T01:09:05.524Z,20.67
2022-11-12T01:09:27.383Z,20.60
2022-11-12T01:09:49.113Z,20.85
2022-11-12T01:10:11.745Z,21.02
2022-11-12T01:10:36.404Z,19.63
2022-11-12T01:11:16.266Z,20.08
2022-11-12T01:11:40.695Z,18.00
2022-11-12T01:12:02.856Z,18.83
2022-11-12T01:12:24.590Z,20.10
2022-11-12T01:12:46.419Z,19.77
2022-11-12T01:13:08.180Z,19.92
2022-11-12T01:13:29.886Z,20.30
2022-11-12T01:14:01.124Z,19.85
2022-11-12T01:14:22.845Z,20.27
2022-11-12T01:14:44.586Z,20.40
2022-11-12T01:15:07.487Z,19.65
2022-11-12T01:15:29.646Z,19.58
2022-11-12T01:15:51.422Z,19.90
2022-11-12T01:16:19.935Z,20.05
2022-11-12T01:16:43.045Z,19.23
2022-11-12T01:17:04.848Z,19.58
2022-11-12T01:17:26.588Z,20.85
2022-11-12T01:17:48.336Z,20.55
2022-11-12T01:18:10.205Z,21.08
2022-11-12T01:18:32.100Z,20.92
2022-11-12T01:18:58.590Z,20.02
2022-11-12T01:19:20.726Z,19.75
2022-11-12T01:19:42.432Z,19.23
2022-11-12T01:20:04.525Z,19.95
2022-11-12T01:20:26.232Z,20.17
2022-11-12T01:20:47.998Z,18.92
2022-11-12T01:21:10.460Z,19.38
2022-11-12T01:21:33.098Z,19.38
2022-11-12T01:21:54.827Z,20.45
2022-11-12T01:22:16.554Z,19.67
2022-11-12T01:22:38.704Z,19.13
2022-11-12T01:23:00.433Z,19.50
2022-11-12T01:23:22.567Z,20.15
2022-11-12T01:23:44.287Z,19.92
2022-11-12T01:24:06.360Z,20.90
2022-11-12T01:24:28.110Z,21.55
2022-11-12T01:24:49.838Z,21.27
2022-11-12T01:25:11.606Z,20.42
2022-11-12T01:25:33.362Z,20.88
2022-11-12T01:25:55.403Z,21.25
2022-11-12T01:26:19.077Z,19.92
2022-11-12T01:26:40.831Z,20.58
2022-11-12T01:27:02.582Z,20.42
2022-11-12T01:27:25.575Z,20.02
2022-11-12T01:27:47.422Z,20.10
2022-11-12T01:28:09.130Z,20.58
2022-11-12T01:28:30.912Z,20.15
2022-11-12T01:28:52.912Z,21.23
2022-11-12T01:29:14.624Z,21.05
2022-11-12T01:29:36.369Z,20.60
2022-11-12T01:29:58.123Z,20.23
2022-11-12T01:30:19.859Z,20.75
2022-11-12T01:30:41.565Z,20.13
2022-11-12T01:31:15.263Z,21.15
2022-11-12T01:31:38.347Z,19.92
2022-11-12T01:32:00.132Z,21.23
2022-11-12T01:32:21.948Z,21.17
2022-11-12T01:32:44.278Z,20.42
2022-11-12T01:33:06.000Z,20.80
2022-11-12T01:33:27.721Z,20.55
2022-11-12T01:33:53.580Z,21.17
2022-11-12T01:34:15.521Z,20.48
2022-11-12T01:34:37.329Z,20.75
2022-11-12T01:34:59.042Z,20.38
2022-11-12T01:35:20.821Z,20.08
2022-11-12T01:35:42.585Z,20.52
2022-11-12T01:36:04.869Z,20.27
2022-11-12T01:36:27.607Z,21.02
2022-11-12T01:36:49.773Z,20.98
2022-11-12T01:37:11.553Z,21.15
2022-11-12T01:37:33.374Z,21.98
2022-11-12T01:37:55.186Z,22.17
2022-11-12T01:38:16.917Z,20.75
2022-11-12T01:38:40.510Z,20.77
2022-11-12T01:39:03.072Z,21.60
2022-11-12T01:39:24.908Z,21.40
2022-11-12T01:39:46.640Z,21.05
2022-11-12T01:40:09.684Z,21.67
2022-11-12T01:40:33.207Z,21.83
2022-11-12T01:40:54.943Z,21.42
2022-11-12T01:41:18.651Z,21.50
2022-11-12T01:41:41.277Z,21.15
2022-11-12T01:42:03.018Z,21.05
2022-11-12T01:42:31.488Z,21.55
2022-11-12T01:42:54.143Z,22.35
2022-11-12T01:43:15.897Z,21.08
2022-11-12T01:43:37.826Z,20.98
2022-11-12T01:44:25.634Z,20.73
2022-11-12T01:44:47.816Z,22.20
2022-11-12T01:45:16.012Z,20.13
2022-11-12T01:45:44.673Z,19.95
2022-11-12T01:46:15.108Z,20.80
2022-11-12T01:47:00.453Z,20.63
2022-11-12T01:47:29.231Z,19.50
2022-11-12T01:47:52.717Z,18.92
2022-11-12T01:48:49.478Z,20.13
2022-11-12T01:49:16.838Z,21.40
2022-11-12T01:49:58.468Z,20.45
2022-11-12T01:50:46.516Z,20.95
2022-11-12T01:51:08.694Z,21.35
2022-11-12T01:51:36.148Z,21.13
2022-11-12T01:51:59.812Z,21.30
2022-11-12T01:52:30.401Z,21.00
2022-11-12T01:52:59.876Z,20.80
2022-11-12T01:53:26.413Z,21.05
2022-11-12T01:53:52.577Z,23.15
2022-11-12T01:54:16.863Z,23.67
2022-11-12T01:54:40.076Z,24.45
2022-11-12T01:55:08.374Z,24.00
2022-11-12T01:55:33.037Z,20.85
2022-11-12T01:55:55.883Z,22.90
2022-11-12T01:56:18.424Z,22.33
2022-11-12T01:56:42.472Z,21.50
2022-11-12T01:57:04.574Z,22.38
2022-11-12T01:57:43.410Z,22.13
2022-11-12T01:58:05.675Z,21.20
2022-11-12T01:58:31.779Z,21.10
2022-11-12T01:59:00.591Z,21.17
2022-11-12T01:59:37.964Z,20.50
2022-11-12T02:00:04.431Z,21.05
2022-11-12T02:00:26.265Z,20.75
2022-11-12T02:00:48.623Z,20.30
2022-11-12T02:01:10.601Z,19.33
2022-11-12T02:01:32.906Z,20.35
2022-11-12T02:01:54.875Z,20.52
2022-11-12T02:02:16.680Z,21.70
2022-11-12T02:02:39.377Z,20.75
2022-11-12T02:03:03.039Z,20.00
2022-11-12T02:03:25.589Z,20.02
2022-11-12T02:03:47.417Z,20.58
2022-11-12T02:04:09.200Z,20.20
2022-11-12T02:04:33.436Z,19.77
2022-11-12T02:04:56.008Z,20.85
2022-11-12T02:05:18.369Z,20.48
2022-11-12T02:05:41.186Z,18.40
2022-11-12T02:06:08.043Z,19.50
2022-11-12T02:06:30.599Z,20.60
2022-11-12T02:06:53.383Z,20.23
2022-11-12T02:07:16.433Z,19.27
2022-11-12T02:07:40.899Z,19.52
2022-11-12T02:08:04.499Z,20.50
2022-11-12T02:08:29.243Z,20.38
2022-11-12T02:08:52.321Z,18.80
2022-11-12T02:09:14.572Z,20.50
2022-11-12T02:09:36.919Z,20.23
2022-11-12T02:10:01.906Z,20.33
2022-11-12T02:10:23.758Z,21.08
2022-11-12T02:10:45.512Z,19.85
2022-11-12T02:11:15.330Z,20.00
2022-11-12T02:11:37.061Z,19.90
2022-11-12T02:12:00.004Z,20.30
2022-11-12T02:12:40.931Z,20.52
2022-11-12T02:13:21.353Z,20.38
2022-11-12T02:14:01.414Z,21.00
2022-11-12T02:14:23.293Z,20.13
2022-11-12T02:14:45.038Z,20.77
2022-11-12T02:15:07.433Z,20.50
2022-11-12T02:15:29.549Z,20.58
2022-11-12T02:15:51.793Z,21.05
2022-11-12T02:16:13.942Z,21.30
2022-11-12T02:16:46.272Z,21.08
2022-11-12T02:17:08.415Z,20.35
2022-11-12T02:17:30.518Z,20.10
2022-11-12T02:17:52.977Z,20.15
2022-11-12T02:18:15.431Z,21.10
2022-11-12T02:18:37.182Z,20.63
2022-11-12T02:18:59.115Z,19.83
2022-11-12T02:19:21.211Z,20.15
2022-11-12T02:19:42.923Z,20.08
2022-11-12T02:20:05.115Z,20.63
2022-11-12T02:20:26.819Z,20.10
2022-11-12T02:20:54.630Z,19.15
2022-11-12T02:21:23.373Z,19.88
2022-11-12T02:21:45.436Z,20.13
2022-11-12T02:22:07.167Z,19.30
2022-11-12T02:22:28.968Z,18.85
2022-11-12T02:22:50.845Z,18.23
2022-11-12T02:23:12.587Z,19.80
2022-11-12T02:23:34.361Z,20.40
2022-11-12T02:24:01.606Z,20.08
2022-11-12T02:24:23.324Z,20.00
2022-11-12T02:24:45.479Z,19.05
2022-11-12T02:25:09.390Z,19.38
2022-11-12T02:25:31.567Z,19.80
2022-11-12T02:25:53.698Z,19.17
2022-11-12T02:26:15.443Z,19.63
2022-11-12T02:26:46.143Z,19.45
2022-11-12T02:27:08.175Z,18.33
2022-11-12T02:27:29.902Z,18.67
2022-11-12T02:27:54.913Z,18.65
2022-11-12T02:28:17.423Z,19.85
2022-11-12T02:28:39.597Z,19.80
2022-11-12T02:29:02.205Z,18.85
2022-11-12T02:29:23.925Z,18.67
2022-11-12T02:29:48.709Z,18.42
2022-11-12T02:30:11.044Z,19.33
2022-11-12T02:30:45.636Z,19.23
2022-11-12T02:31:07.778Z,19.33
2022-11-12T02:31:30.312Z,19.25
2022-11-12T02:31:52.449Z,18.58
2022-11-12T02:32:14.436Z,19.38
2022-11-12T02:32:36.185Z,19.48
2022-11-12T02:32:58.032Z,19.52
2022-11-12T02:33:20.015Z,19.48
2022-11-12T02:33:41.776Z,19.02
2022-11-12T02:34:03.959Z,18.73
2022-11-12T02:34:25.720Z,19.23
2022-11-12T02:34:47.436Z,19.35
2022-11-12T02:35:09.609Z,18.95
2022-11-12T02:35:32.631Z,18.77
2022-11-12T02:35:54.374Z,18.77
2022-11-12T02:36:16.129Z,18.65
2022-11-12T02:36:37.977Z,19.13
2022-11-12T02:36:59.702Z,19.00
2022-11-12T02:37:21.436Z,19.10
2022-11-12T02:37:43.212Z,19.80
2022-11-12T02:38:06.249Z,20.10
2022-11-12T02:38:28.125Z,19.58
2022-11-12T02:38:50.221Z,18.75
2022-11-12T02:39:12.127Z,19.23
2022-11-12T02:39:34.280Z,19.60
2022-11-12T02:39:56.400Z,19.55
2022-11-12T02:40:18.144Z,19.02
2022-11-12T02:40:39.933Z,18.58
2022-11-12T02:41:01.689Z,19.25
2022-11-12T02:41:23.639Z,18.77
2022-11-12T02:41:45.458Z,18.50
2022-11-12T02:42:07.199Z,18.50
2022-11-12T02:42:28.984Z,18.67
2022-11-12T02:42:50.713Z,19.05
2022-11-12T02:43:12.460Z,18.98
2022-11-12T02:43:34.350Z,19.05
2022-11-12T02:43:56.058Z,19.05
2022-11-12T02:44:17.825Z,18.20
2022-11-12T02:44:39.703Z,19.20
2022-11-12T02:45:01.520Z,19.65
2022-11-12T02:45:23.799Z,19.15
2022-11-12T02:45:45.531Z,19.45
2022-11-12T02:46:08.044Z,19.15
2022-11-12T02:46:29.778Z,18.90
2022-11-12T02:46:51.508Z,19.15
2022-11-12T02:47:13.246Z,19.13
2022-11-12T02:47:34.967Z,19.25
2022-11-12T02:47:56.742Z,18.77
2022-11-12T02:48:19.457Z,18.90
2022-11-12T02:48:41.290Z,18.88
2022-11-12T02:49:03.028Z,19.42
2022-11-12T02:49:24.776Z,19.30
2022-11-12T02:49:46.895Z,19.08
2022-11-12T02:50:09.367Z,19.08
2022-11-12T02:50:31.075Z,19.55
2022-11-12T02:50:52.818Z,19.00
2022-11-12T02:51:14.538Z,17.88
2022-11-12T02:51:36.246Z,18.65
2022-11-12T02:51:58.361Z,19.42
2022-11-12T02:52:20.461Z,19.30
2022-11-12T02:52:42.389Z,19.75
2022-11-12T02:53:04.151Z,19.48
2022-11-12T02:53:25.933Z,18.98
2022-11-12T02:53:47.638Z,18.52
2022-11-12T02:54:09.427Z,18.40
2022-11-12T02:54:31.174Z,19.30
2022-11-12T02:54:53.274Z,19.70
2022-11-12T02:55:15.101Z,19.73
2022-11-12T02:55:36.846Z,19.23
2022-11-12T02:55:59.432Z,18.75
2022-11-12T02:56:21.158Z,19.33
2022-11-12T02:56:43.286Z,19.58
2022-11-12T02:57:05.390Z,19.25
2022-11-12T02:57:27.622Z,19.67
2022-11-12T02:57:49.384Z,19.75
2022-11-12T02:58:11.147Z,19.80
2022-11-12T02:58:32.907Z,19.70
2022-11-12T02:58:54.696Z,18.65
2022-11-12T02:59:16.434Z,18.88
2022-11-12T02:59:38.259Z,19.13
2022-11-12T02:59:59.992Z,19.15
2022-11-12T03:00:21.866Z,19.77
2022-11-12T03:00:44.029Z,19.60
2022-11-12T03:01:05.861Z,19.20
2022-11-12T03:01:28.390Z,19.13
2022-11-12T03:01:50.119Z,18.85
2022-11-12T03:02:11.841Z,18.60
2022-11-12T03:02:33.948Z,18.80
2022-11-12T03:02:59.170Z,17.88
2022-11-12T03:03:21.145Z,18.30
2022-11-12T03:03:42.853Z,19.42
2022-11-12T03:04:04.702Z,18.88
2022-11-12T03:04:26.602Z,19.20
2022-11-12T03:04:49.533Z,18.30
2022-11-12T03:05:12.271Z,19.00
2022-11-12T03:05:35.233Z,18.00
2022-11-12T03:06:01.382Z,18.38
2022-11-12T03:06:23.496Z,19.23
2022-11-12T03:06:45.317Z,19.63
2022-11-12T03:07:07.137Z,18.98
2022-11-12T03:07:28.865Z,18.08
2022-11-12T03:07:50.608Z,18.35
2022-11-12T03:08:12.462Z,18.85
2022-11-12T03:08:34.181Z,18.20
2022-11-12T03:08:56.292Z,18.73
2022-11-12T03:09:18.406Z,19.02
2022-11-12T03:09:40.153Z,18.75
2022-11-12T03:10:01.873Z,19.23
2022-11-12T03:10:24.133Z,18.65
2022-11-12T03:10:45.866Z,19.38
2022-11-12T03:11:09.783Z,19.23
2022-11-12T03:11:31.526Z,19.73
2022-11-12T03:11:53.287Z,18.73
2022-11-12T03:12:15.142Z,19.02
2022-11-12T03:12:36.861Z,18.35
2022-11-12T03:13:00.070Z,18.35
2022-11-12T03:13:21.989Z,18.60
2022-11-12T03:13:44.235Z,18.33
2022-11-12T03:14:06.012Z,18.35
2022-11-12T03:14:27.781Z,18.05
2022-11-12T03:14:49.460Z,18.27
2022-11-12T03:15:11.597Z,17.48
2022-11-12T03:15:33.368Z,18.17
2022-11-12T03:16:02.123Z,18.10
2022-11-12T03:16:23.865Z,18.58
2022-11-12T03:16:45.593Z,18.73
2022-11-12T03:17:07.749Z,18.85
2022-11-12T03:17:29.592Z,17.95
2022-11-12T03:17:51.720Z,18.60
2022-11-12T03:18:13.877Z,18.38
2022-11-12T03:18:36.080Z,18.48
2022-11-12T03:18:58.223Z,17.90
2022-11-12T03:19:20.094Z,18.38
2022-11-12T03:19:41.834Z,18.30
2022-11-12T03:20:03.904Z,18.17
2022-11-12T03:20:26.822Z,18.45
2022-11-12T03:20:52.080Z,17.92
2022-11-12T03:21:14.009Z,17.85
2022-11-12T03:21:35.777Z,17.85
2022-11-12T03:21:57.581Z,18.00
2022-11-12T03:22:19.305Z,18.85
2022-11-12T03:22:41.515Z,18.48
2022-11-12T03:23:06.047Z,18.30
2022-11-12T03:23:28.606Z,18.52
2022-11-12T03:23:50.396Z,19.13
2022-11-12T03:24:12.232Z,19.45
2022-11-12T03:24:33.997Z,19.38
2022-11-12T03:24:55.699Z,18.67
2022-11-12T03:25:17.910Z,18.33
2022-11-12T03:25:39.717Z,19.33
2022-11-12T03:26:05.183Z,19.02
2022-11-12T03:26:30.534Z,18.95
2022-11-12T03:26:54.878Z,19.02
2022-11-12T03:27:16.640Z,18.63
2022-11-12T03:27:38.348Z,19.05
2022-11-12T03:28:12.266Z,18.38
2022-11-12T03:28:34.013Z,18.55
2022-11-12T03:28:55.735Z,18.73
2022-11-12T03:29:17.976Z,18.73
2022-11-12T03:29:39.748Z,19.15
2022-11-12T03:30:01.933Z,18.55
2022-11-12T03:30:24.249Z,19.02
2022-11-12T03:30:46.421Z,18.95
2022-11-12T03:31:08.122Z,18.88
2022-11-12T03:31:30.009Z,18.52
2022-11-12T03:31:51.717Z,18.70
2022-11-12T03:32:13.602Z,19.02
2022-11-12T03:32:35.348Z,19.13
2022-11-12T03:32:57.046Z,18.52
2022-11-12T03:33:18.849Z,18.48
2022-11-12T03:33:40.582Z,18.48
2022-11-12T03:34:02.286Z,18.42
2022-11-12T03:34:24.009Z,18.15
2022-11-12T03:34:45.721Z,18.92
2022-11-12T03:35:07.981Z,18.90
2022-11-12T03:35:29.832Z,19.38
2022-11-12T03:35:51.579Z,18.55
2022-11-12T03:36:13.369Z,18.52
2022-11-12T03:36:35.281Z,18.75
2022-11-12T03:36:57.013Z,18.25
2022-11-12T03:37:18.778Z,18.23
2022-11-12T03:37:40.550Z,18.90
2022-11-12T03:38:02.880Z,18.83
2022-11-12T03:38:25.199Z,18.23
2022-11-12T03:38:47.548Z,18.38
2022-11-12T03:39:09.752Z,18.88
2022-11-12T03:39:31.546Z,18.08
2022-11-12T03:39:53.649Z,18.02
2022-11-12T03:40:15.564Z,18.48
2022-11-12T03:40:37.356Z,18.50
2022-11-12T03:40:59.444Z,18.35
2022-11-12T03:41:21.169Z,18.08
2022-11-12T03:41:42.867Z,17.45
2022-11-12T03:42:04.955Z,18.27
2022-11-12T03:42:26.680Z,18.00
2022-11-12T03:42:50.239Z,18.23
2022-11-12T03:43:11.956Z,17.83
2022-11-12T03:43:33.708Z,17.75
2022-11-12T03:43:55.416Z,18.52
2022-11-12T03:44:18.345Z,18.00
2022-11-12T03:44:40.085Z,17.25
2022-11-12T03:45:01.805Z,18.10
2022-11-12T03:45:25.780Z,17.80
2022-11-12T03:45:47.796Z,18.02
2022-11-12T03:46:09.952Z,18.58
2022-11-12T03:46:31.738Z,18.52
2022-11-12T03:46:53.906Z,18.45
2022-11-12T03:47:15.649Z,17.55
2022-11-12T03:47:42.265Z,17.92
2022-11-12T03:48:04.429Z,18.13
2022-11-12T03:48:26.698Z,17.85
2022-11-12T03:48:48.701Z,18.13
2022-11-12T03:49:10.439Z,18.38
2022-11-12T03:49:32.139Z,18.38
2022-11-12T03:49:53.942Z,18.27
2022-11-12T03:50:16.996Z,18.20
2022-11-12T03:50:39.115Z,18.33
2022-11-12T03:51:00.947Z,18.42
2022-11-12T03:51:22.822Z,18.52
2022-11-12T03:51:44.696Z,17.63
2022-11-12T03:52:06.403Z,17.98
2022-11-12T03:52:28.132Z,17.95
2022-11-12T03:52:52.071Z,17.67
2022-11-12T03:53:14.307Z,17.48
2022-11-12T03:53:36.040Z,17.50
2022-11-12T03:53:57.776Z,17.90
2022-11-12T03:54:20.191Z,18.27
2022-11-12T03:54:41.926Z,18.30
2022-11-12T03:55:04.842Z,18.13
2022-11-12T03:55:27.966Z,18.05
2022-11-12T03:55:49.680Z,17.67
2022-11-12T03:56:11.442Z,17.75
2022-11-12T03:56:33.190Z,18.83
2022-11-12T03:56:55.328Z,18.60
2022-11-12T03:57:17.045Z,18.30
2022-11-12T03:57:38.869Z,18.23
2022-11-12T03:58:00.614Z,18.42
2022-11-12T03:58:22.389Z,18.20
2022-11-12T03:58:44.506Z,17.67
2022-11-12T03:59:06.383Z,17.75
2022-11-12T03:59:28.098Z,18.35
2022-11-12T03:59:49.837Z,18.58
2022-11-12T04:00:13.200Z,18.80
2022-11-12T04:00:35.342Z,17.60
2022-11-12T04:00:57.129Z,18.40
2022-11-12T04:01:18.961Z,19.70
2022-11-12T04:01:41.155Z,19.63
2022-11-12T04:02:02.953Z,21.38
2022-11-12T04:02:26.862Z,22.00
2022-11-12T04:02:48.838Z,22.95
2022-11-12T04:03:10.718Z,23.48
2022-11-12T04:03:32.446Z,21.70
2022-11-12T04:03:54.162Z,19.85
2022-11-12T04:04:15.912Z,19.67
2022-11-12T04:04:56.365Z,20.35
2022-11-12T04:05:37.342Z,20.27
2022-11-12T04:06:17.858Z,19.75
2022-11-12T04:06:58.790Z,19.30
2022-11-12T04:07:38.952Z,18.50
2022-11-12T04:08:21.419Z,18.73
2022-11-12T04:08:43.233Z,18.80
2022-11-12T04:09:05.041Z,18.92
2022-11-12T04:09:26.767Z,18.80
2022-11-12T04:09:48.892Z,18.23
2022-11-12T04:10:10.623Z,18.42
2022-11-12T04:10:32.764Z,18.73
2022-11-12T04:10:54.951Z,18.88
2022-11-12T04:11:17.134Z,19.30
2022-11-12T04:11:38.877Z,19.07
2022-11-12T04:12:20.532Z,18.98
2022-11-12T04:13:00.716Z,18.33
2022-11-12T04:13:28.604Z,18.55
2022-11-12T04:13:50.335Z,18.60
2022-11-12T04:14:12.065Z,18.30
2022-11-12T04:14:33.806Z,18.35
2022-11-12T04:14:55.974Z,18.42
2022-11-12T04:15:17.696Z,17.80
2022-11-12T04:15:39.421Z,18.27
2022-11-12T04:16:24.246Z,18.80
2022-11-12T04:17:04.448Z,18.42
2022-11-12T04:17:44.846Z,18.48
2022-11-12T04:18:25.573Z,19.42
2022-11-12T04:19:07.952Z,19.13
2022-11-12T04:19:48.243Z,18.63
2022-11-12T04:20:28.434Z,19.77
2022-11-12T04:21:09.362Z,18.95
2022-11-12T04:21:51.441Z,19.13
2022-11-12T04:22:13.185Z,19.30
2022-11-12T04:22:34.943Z,19.73
2022-11-12T04:22:56.624Z,20.45
2022-11-12T04:23:18.334Z,18.95
2022-11-12T04:23:40.745Z,21.02
2022-11-12T04:24:02.505Z,21.30
2022-11-12T04:24:46.838Z,21.23
2022-11-12T04:25:27.380Z,19.15
2022-11-12T04:26:07.767Z,19.13
2022-11-12T04:26:29.518Z,18.60
2022-11-12T04:26:51.250Z,18.40
2022-11-12T04:27:22.583Z,19.48
2022-11-12T04:27:44.690Z,19.95
2022-11-12T04:28:06.415Z,18.25
2022-11-12T04:28:28.344Z,18.15
2022-11-12T04:29:08.752Z,18.75
2022-11-12T04:29:50.219Z,19.02
2022-11-12T04:30:19.029Z,18.58
2022-11-12T04:30:40.826Z,18.67
2022-11-12T04:31:02.685Z,19.48
2022-11-12T04:31:24.434Z,19.13
2022-11-12T04:31:46.131Z,19.23
2022-11-12T04:32:07.882Z,19.45
2022-11-12T04:32:30.426Z,19.42
2022-11-12T04:32:57.233Z,18.73
2022-11-12T04:33:18.990Z,18.90
2022-11-12T04:33:40.677Z,19.15
2022-11-12T04:34:22.390Z,19.20
2022-11-12T04:34:44.542Z,19.08
2022-11-12T04:35:09.852Z,19.35
2022-11-12T04:35:31.615Z,19.00
2022-11-12T04:35:53.320Z,18.70
2022-11-12T04:36:15.038Z,19.20
2022-11-12T04:36:36.733Z,19.23
2022-11-12T04:36:58.527Z,18.25
2022-11-12T04:37:23.454Z,18.83
2022-11-12T04:37:45.807Z,19.50
2022-11-12T04:38:07.541Z,19.20
2022-11-12T04:38:29.368Z,18.85
2022-11-12T04:38:51.212Z,19.17
2022-11-12T04:39:13.057Z,18.50
2022-11-12T04:39:34.848Z,18.95
2022-11-12T04:40:16.564Z,18.52
2022-11-12T04:40:56.704Z,19.45
2022-11-12T04:41:37.048Z,19.38
2022-11-12T04:42:18.073Z,19.40
2022-11-12T04:43:00.029Z,19.20
2022-11-12T04:43:40.414Z,20.00
2022-11-12T04:44:20.955Z,19.23
2022-11-12T04:45:01.486Z,20.58
2022-11-12T04:45:23.547Z,20.98
2022-11-12T04:45:48.258Z,21.30
2022-11-12T04:46:10.207Z,21.63
2022-11-12T04:46:32.312Z,24.80
2022-11-12T04:46:54.432Z,23.13
2022-11-12T04:47:16.191Z,22.52
2022-11-12T04:47:39.467Z,21.73
2022-11-12T04:48:01.186Z,21.42
2022-11-12T04:48:24.372Z,21.27
2022-11-12T04:48:46.339Z,20.45
2022-11-12T04:49:08.503Z,20.88
2022-11-12T04:49:30.620Z,20.80
2022-11-12T04:49:52.433Z,20.10
2022-11-12T04:50:16.487Z,20.10
2022-11-12T04:50:38.911Z,20.73
2022-11-12T04:51:02.565Z,19.67
2022-11-12T04:51:43.260Z,21.20
2022-11-12T04:52:05.064Z,20.27
2022-11-12T04:52:28.286Z,19.77
2022-11-12T04:52:50.002Z,19.95
2022-11-12T04:53:11.769Z,20.75
2022-11-12T04:53:33.925Z,20.00
2022-11-12T04:53:55.692Z,19.65
2022-11-12T04:54:17.414Z,19.25
2022-11-12T04:54:39.187Z,19.98
2022-11-12T04:55:01.001Z,20.02
2022-11-12T04:55:23.140Z,19.70
2022-11-12T04:55:44.938Z,19.35
2022-11-12T04:56:06.993Z,19.15
2022-11-12T04:56:28.695Z,20.33
2022-11-12T04:56:50.408Z,20.33
2022-11-12T04:57:12.215Z,20.17
2022-11-12T04:57:34.104Z,18.95
2022-11-12T04:58:00.394Z,19.52
2022-11-12T04:58:23.568Z,20.27
2022-11-12T04:58:45.590Z,20.85
2022-11-12T04:59:07.756Z,20.58
2022-11-12T04:59:29.909Z,19.92
2022-11-12T04:59:51.840Z,19.88
2022-11-12T05:00:13.961Z,19.60
2022-11-12T05:00:35.661Z,19.00
2022-11-12T05:00:57.677Z,19.60
2022-11-12T05:01:19.526Z,19.83
2022-11-12T05:01:41.367Z,20.75
2022-11-12T05:02:03.143Z,20.25
2022-11-12T05:02:24.896Z,19.98
2022-11-12T05:02:47.072Z,20.05
2022-11-12T05:03:09.246Z,20.20
2022-11-12T05:03:31.018Z,20.08